createdAt,value
2022-07-26T00:00:57.487Z,25.76
2022-07-26T00:03:00.452Z,25.76
2022-07-26T00:05:03.443Z,25.72
2022-07-26T00:07:09.195Z,25.70
2022-07-26T00:09:13.448Z,25.64
2022-07-26T00:11:16.542Z,25.46
2022-07-26T00:13:21.551Z,25.51
2022-07-26T00:15:24.394Z,25.53
2022-07-26T00:17:27.250Z,25.55
2022-07-26T00:19:30.003Z,25.51
2022-07-26T00:21:32.838Z,25.50
2022-07-26T00:23:35.925Z,25.50
2022-07-26T00:25:40.525Z,25.48
2022-07-26T00:27:43.404Z,25.40
2022-07-26T00:29:48.089Z,25.37
2022-07-26T00:31:50.957Z,25.33
2022-07-26T00:33:54.250Z,25.32
2022-07-26T00:35:57.221Z,25.30
2022-07-26T00:38:00.624Z,25.26
2022-07-26T00:40:05.785Z,25.22
2022-07-26T00:42:14.021Z,25.18
2022-07-26T00:44:17.099Z,25.11
2022-07-26T00:46:44.940Z,25.04
2022-07-26T00:48:47.915Z,24.95
2022-07-26T00:50:51.082Z,24.93
2022-07-26T00:52:54.274Z,24.92
2022-07-26T00:54:57.303Z,24.89
2022-07-26T00:57:00.239Z,24.85
2022-07-26T00:59:04.849Z,24.84
2022-07-26T01:01:08.095Z,24.84
2022-07-26T01:03:11.182Z,24.87
2022-07-26T01:05:14.138Z,24.85
2022-07-26T01:07:17.042Z,24.80
2022-07-26T01:09:20.556Z,24.70
2022-07-26T01:11:23.380Z,24.67
2022-07-26T01:13:26.330Z,24.60
2022-07-26T01:15:30.595Z,24.60
2022-07-26T01:17:33.272Z,24.38
2022-07-26T01:19:39.337Z,24.37
2022-07-26T01:21:43.991Z,24.37
2022-07-26T01:23:46.863Z,24.33
2022-07-26T01:25:49.843Z,24.29
2022-07-26T01:27:55.060Z,24.28
2022-07-26T01:29:57.912Z,24.28
2022-07-26T01:32:03.983Z,24.26
2022-07-26T01:34:07.125Z,24.23
2022-07-26T01:36:12.343Z,24.21
2022-07-26T01:38:16.625Z,24.20
2022-07-26T01:40:19.387Z,24.04
2022-07-26T01:42:22.225Z,24.05
2022-07-26T01:44:25.175Z,24.13
2022-07-26T01:46:28.200Z,24.16
2022-07-26T01:48:31.622Z,24.15
2022-07-26T01:50:34.776Z,24.09
2022-07-26T01:52:39.200Z,24.04
2022-07-26T01:54:43.569Z,24.08
2022-07-26T01:56:46.245Z,23.86
2022-07-26T01:58:49.524Z,23.91
2022-07-26T02:00:52.408Z,23.95
2022-07-26T02:02:55.351Z,23.95
2022-07-26T02:05:01.725Z,23.98
2022-07-26T02:07:05.314Z,24.08
2022-07-26T02:09:09.780Z,24.09
2022-07-26T02:11:17.409Z,24.17
2022-07-26T02:13:20.362Z,24.17
2022-07-26T02:15:23.259Z,24.08
2022-07-26T02:17:26.147Z,24.02
2022-07-26T02:19:44.243Z,23.95
2022-07-26T02:21:47.230Z,23.88
2022-07-26T02:23:50.111Z,23.81
2022-07-26T02:25:54.250Z,23.79
2022-07-26T02:27:58.508Z,23.73
2022-07-26T02:30:01.917Z,23.53
2022-07-26T02:32:05.925Z,23.61
2022-07-26T02:34:09.345Z,23.63
2022-07-26T02:36:12.580Z,23.65
2022-07-26T02:38:17.376Z,23.61
2022-07-26T02:40:20.303Z,23.60
2022-07-26T02:42:23.229Z,23.64
2022-07-26T02:44:28.469Z,23.61
2022-07-26T02:46:31.447Z,23.54
2022-07-26T02:48:34.419Z,23.49
2022-07-26T02:50:38.032Z,23.39
2022-07-26T02:52:40.880Z,23.37
2022-07-26T02:54:43.868Z,23.35
2022-07-26T02:56:46.847Z,23.33
2022-07-26T02:58:49.694Z,23.35
2022-07-26T03:00:53.970Z,23.39
2022-07-26T03:02:57.601Z,23.39
2022-07-26T03:05:02.205Z,23.40
2022-07-26T03:07:05.063Z,23.39
2022-07-26T03:09:07.972Z,23.47
2022-07-26T03:11:12.307Z,23.47
2022-07-26T03:13:15.213Z,23.39
2022-07-26T03:15:18.176Z,23.41
2022-07-26T03:17:22.542Z,23.48
2022-07-26T03:19:25.201Z,23.28
2022-07-26T03:21:28.260Z,23.21
2022-07-26T03:23:33.359Z,23.22
2022-07-26T03:25:37.613Z,23.26
2022-07-26T03:27:40.759Z,23.25
2022-07-26T03:29:43.714Z,23.25
2022-07-26T03:31:46.608Z,23.26
2022-07-26T03:33:50.826Z,23.22
2022-07-26T03:35:53.878Z,23.17
2022-07-26T03:37:57.683Z,23.19
2022-07-26T03:40:00.630Z,23.24
2022-07-26T03:42:03.536Z,23.25
2022-07-26T03:44:06.987Z,23.32
2022-07-26T03:46:10.396Z,23.30
2022-07-26T03:48:13.317Z,23.24
2022-07-26T03:50:17.643Z,23.25
2022-07-26T03:52:20.589Z,23.08
2022-07-26T03:54:23.554Z,23.15
2022-07-26T03:56:34.177Z,23.22
2022-07-26T03:58:37.357Z,23.21
2022-07-26T04:00:40.451Z,23.22
2022-07-26T04:02:43.403Z,23.21
2022-07-26T04:04:46.280Z,23.14
2022-07-26T04:06:50.754Z,23.12
2022-07-26T04:08:53.512Z,22.94
2022-07-26T04:10:56.448Z,22.99
2022-07-26T04:12:59.369Z,23.06
2022-07-26T04:15:02.314Z,23.07
2022-07-26T04:17:05.278Z,23.12
2022-07-26T04:19:08.266Z,23.08
2022-07-26T04:21:11.161Z,23.04
2022-07-26T04:23:15.446Z,22.98
2022-07-26T04:25:18.811Z,22.92
2022-07-26T04:27:21.706Z,22.89
2022-07-26T04:29:24.623Z,22.94
2022-07-26T04:31:27.633Z,22.93
2022-07-26T04:33:37.785Z,22.91
2022-07-26T04:35:40.638Z,22.89
2022-07-26T04:37:45.113Z,22.91
2022-07-26T04:39:54.449Z,22.82
2022-07-26T04:41:57.933Z,22.89
2022-07-26T04:44:00.868Z,22.98
2022-07-26T04:46:03.871Z,22.96
2022-07-26T04:48:08.042Z,23.05
2022-07-26T04:50:11.303Z,22.92
2022-07-26T04:52:14.169Z,22.90
2022-07-26T04:54:20.587Z,22.73
2022-07-26T04:56:24.864Z,22.54
2022-07-26T04:58:27.804Z,22.53
2022-07-26T05:00:30.821Z,22.59
2022-07-26T05:02:33.865Z,22.58
2022-07-26T05:04:36.962Z,22.56
2022-07-26T05:06:39.919Z,22.72
2022-07-26T05:08:43.335Z,22.71
2022-07-26T05:10:49.409Z,22.63
2022-07-26T05:12:57.299Z,22.70
2022-07-26T05:15:00.141Z,22.67
2022-07-26T05:17:08.775Z,22.70
2022-07-26T05:19:13.242Z,22.63
2022-07-26T05:21:16.124Z,22.66
2022-07-26T05:23:20.458Z,22.76
2022-07-26T05:25:23.569Z,22.67
2022-07-26T05:27:26.419Z,22.53
2022-07-26T05:29:30.646Z,22.51
2022-07-26T05:31:33.559Z,22.30
2022-07-26T05:33:36.453Z,22.39
2022-07-26T05:35:39.295Z,22.46
2022-07-26T05:37:43.252Z,22.43
2022-07-26T05:39:46.186Z,22.29
2022-07-26T05:41:49.040Z,22.23
2022-07-26T05:43:52.172Z,22.11
2022-07-26T05:45:57.704Z,22.14
2022-07-26T05:48:00.636Z,22.25
2022-07-26T05:50:04.347Z,22.31
2022-07-26T05:52:07.467Z,22.42
2022-07-26T05:54:10.745Z,22.56
2022-07-26T05:56:13.749Z,22.60
2022-07-26T05:58:16.644Z,22.57
2022-07-26T06:00:20.799Z,22.52
2022-07-26T06:02:25.108Z,22.53
2022-07-26T06:04:27.952Z,22.42
2022-07-26T06:06:30.976Z,22.56
2022-07-26T06:08:34.776Z,22.60
2022-07-26T06:10:37.665Z,22.59
2022-07-26T06:12:41.450Z,22.66
2022-07-26T06:14:44.483Z,22.65
2022-07-26T06:16:47.477Z,22.57
2022-07-26T06:18:51.618Z,22.47
2022-07-26T06:20:54.577Z,22.44
2022-07-26T06:22:58.534Z,22.42
2022-07-26T06:25:01.501Z,22.36
2022-07-26T06:27:05.626Z,22.32
2022-07-26T06:29:08.680Z,22.40
2022-07-26T06:31:11.949Z,22.49
2022-07-26T06:33:15.064Z,22.52
2022-07-26T06:35:20.009Z,22.56
2022-07-26T06:37:22.872Z,22.68
2022-07-26T06:39:25.793Z,22.73
2022-07-26T06:41:28.785Z,22.77
2022-07-26T06:43:31.684Z,22.79
2022-07-26T06:45:34.888Z,22.84
2022-07-26T06:47:37.876Z,22.96
2022-07-26T06:49:40.887Z,22.89
2022-07-26T06:51:45.129Z,22.83
2022-07-26T06:53:48.084Z,22.86
2022-07-26T06:55:50.991Z,22.88
2022-07-26T06:57:53.840Z,22.93
2022-07-26T06:59:56.662Z,22.96
2022-07-26T07:02:00.628Z,22.87
2022-07-26T07:04:03.745Z,22.87
2022-07-26T07:06:07.072Z,22.91
2022-07-26T07:08:11.756Z,22.86
2022-07-26T07:10:14.639Z,22.79
2022-07-26T07:12:17.535Z,22.83
2022-07-26T07:14:20.416Z,22.79
2022-07-26T07:16:23.416Z,22.81
2022-07-26T07:18:26.326Z,22.88
2022-07-26T07:20:29.432Z,22.82
2022-07-26T07:22:33.105Z,22.83
2022-07-26T07:24:37.393Z,22.69
2022-07-26T07:26:40.775Z,22.60
2022-07-26T07:28:43.615Z,22.66
2022-07-26T07:30:47.474Z,22.80
2022-07-26T07:32:51.070Z,22.83
2022-07-26T07:34:54.061Z,23.08
2022-07-26T07:36:56.915Z,23.28
2022-07-26T07:39:05.965Z,23.46
2022-07-26T07:41:10.791Z,23.32
2022-07-26T07:43:13.866Z,23.28
2022-07-26T07:45:16.779Z,23.26
2022-07-26T07:47:19.843Z,23.26
2022-07-26T07:49:23.151Z,23.38
2022-07-26T07:51:26.575Z,23.37
2022-07-26T07:53:30.946Z,23.44
2022-07-26T07:55:41.241Z,23.32
2022-07-26T07:57:48.660Z,23.40
2022-07-26T07:59:51.397Z,23.46
2022-07-26T08:01:54.287Z,23.59
2022-07-26T08:03:57.220Z,23.64
2022-07-26T08:06:00.102Z,23.74
2022-07-26T08:08:03.360Z,23.92
2022-07-26T08:10:07.482Z,23.96
2022-07-26T08:12:11.063Z,23.87
2022-07-26T08:14:15.984Z,23.83
2022-07-26T08:16:20.871Z,23.85
2022-07-26T08:18:24.847Z,23.95
2022-07-26T08:20:27.891Z,23.94
2022-07-26T08:22:30.828Z,23.86
2022-07-26T08:24:33.689Z,23.84
2022-07-26T08:26:36.614Z,24.15
2022-07-26T08:28:48.159Z,24.34
2022-07-26T08:30:52.857Z,24.42
2022-07-26T08:32:55.791Z,24.18
2022-07-26T08:35:17.075Z,24.26
2022-07-26T08:37:21.521Z,23.99
2022-07-26T08:39:24.387Z,23.87
2022-07-26T08:41:27.339Z,23.91
2022-07-26T08:43:30.406Z,23.94
2022-07-26T08:45:36.103Z,24.08
2022-07-26T08:47:55.393Z,24.01
2022-07-26T08:50:04.865Z,23.99
2022-07-26T08:52:08.028Z,23.92
2022-07-26T08:54:13.171Z,23.95
2022-07-26T08:56:16.053Z,23.86
2022-07-26T08:58:18.916Z,23.93
2022-07-26T09:00:24.942Z,24.10
2022-07-26T09:02:42.013Z,24.28
2022-07-26T09:04:46.390Z,24.52
2022-07-26T09:06:57.750Z,24.72
2022-07-26T09:09:12.561Z,24.87
2022-07-26T09:11:33.062Z,24.74
2022-07-26T09:13:51.928Z,24.79
2022-07-26T09:16:10.179Z,24.73
2022-07-26T09:18:28.207Z,24.60
2022-07-26T09:20:33.182Z,24.56
2022-07-26T09:22:36.579Z,24.53
2022-07-26T09:24:42.119Z,24.45
2022-07-26T09:26:56.517Z,24.41
2022-07-26T09:29:07.875Z,24.44
2022-07-26T09:31:11.187Z,24.62
2022-07-26T09:33:14.064Z,24.91
2022-07-26T09:35:45.848Z,25.07
2022-07-26T09:37:44.060Z,25.02
2022-07-26T09:39:58.630Z,24.85
2022-07-26T09:44:31.792Z,24.72
2022-07-26T09:46:53.780Z,24.43
2022-07-26T09:49:10.457Z,24.46
2022-07-26T09:51:15.600Z,24.82
2022-07-26T09:53:19.064Z,25.13
2022-07-26T09:55:22.006Z,25.42
2022-07-26T09:57:25.239Z,25.43
2022-07-26T09:59:29.914Z,25.53
2022-07-26T10:01:33.008Z,25.64
2022-07-26T10:03:36.483Z,25.62
2022-07-26T10:05:40.119Z,25.54
2022-07-26T10:07:45.376Z,25.48
2022-07-26T10:09:53.473Z,25.92
2022-07-26T10:11:59.276Z,25.82
2022-07-26T10:14:22.923Z,25.86
2022-07-26T10:16:33.105Z,25.74
2022-07-26T10:18:47.319Z,25.96
2022-07-26T10:20:52.717Z,25.82
2022-07-26T10:22:56.978Z,25.49
2022-07-26T10:25:46.553Z,25.33
2022-07-26T10:27:51.379Z,25.41
2022-07-26T10:30:23.683Z,25.59
2022-07-26T10:32:27.040Z,25.78
2022-07-26T10:34:31.790Z,26.02
2022-07-26T10:36:36.803Z,26.51
2022-07-26T10:38:40.977Z,26.74
2022-07-26T10:40:57.477Z,26.43
2022-07-26T10:43:37.855Z,26.14
2022-07-26T10:45:32.109Z,26.13
2022-07-26T10:47:35.481Z,25.85
2022-07-26T10:49:40.368Z,25.74
2022-07-26T10:51:43.323Z,25.66
2022-07-26T10:54:00.585Z,25.81
2022-07-26T10:56:03.448Z,25.66
2022-07-26T10:58:06.299Z,25.85
2022-07-26T11:00:15.758Z,26.25
2022-07-26T11:02:19.957Z,26.62
2022-07-26T11:04:24.866Z,26.76
2022-07-26T11:06:30.270Z,26.44
2022-07-26T11:08:33.154Z,26.34
2022-07-26T11:10:39.836Z,26.34
2022-07-26T11:12:42.827Z,26.30
2022-07-26T11:14:48.372Z,26.13
2022-07-26T11:16:51.495Z,26.10
2022-07-26T11:18:54.387Z,25.94
2022-07-26T11:20:59.107Z,25.82
2022-07-26T11:23:02.104Z,25.78
2022-07-26T11:25:06.000Z,25.81
2022-07-26T11:27:10.346Z,25.74
2022-07-26T11:29:16.843Z,25.64
2022-07-26T11:31:22.269Z,25.84
2022-07-26T11:33:36.311Z,25.89
2022-07-26T11:35:51.487Z,25.83
2022-07-26T11:38:05.091Z,25.82
2022-07-26T11:40:14.075Z,26.02
2022-07-26T11:42:21.608Z,26.33
2022-07-26T11:44:24.860Z,26.65
2022-07-26T11:46:37.267Z,26.64
2022-07-26T11:48:46.445Z,26.62
2022-07-26T11:50:49.382Z,26.61
2022-07-26T11:52:53.149Z,26.76
2022-07-26T11:54:56.079Z,26.96
2022-07-26T11:57:00.884Z,27.13
2022-07-26T11:59:05.270Z,27.50
2022-07-26T12:01:09.276Z,27.56
2022-07-26T12:03:12.229Z,27.62
2022-07-26T12:05:18.437Z,27.96
2022-07-26T12:07:22.085Z,27.84
2022-07-26T12:09:33.122Z,27.61
2022-07-26T12:11:40.104Z,27.12
2022-07-26T12:13:55.810Z,27.02
2022-07-26T12:16:00.574Z,26.81
2022-07-26T12:18:03.517Z,26.92
2022-07-26T12:20:13.444Z,26.70
2022-07-26T12:22:18.112Z,26.75
2022-07-26T12:24:44.736Z,26.69
2022-07-26T12:27:04.563Z,26.61
2022-07-26T12:29:24.418Z,26.57
2022-07-26T12:31:30.603Z,26.41
2022-07-26T12:33:33.603Z,26.47
2022-07-26T12:35:36.507Z,26.54
2022-07-26T12:37:51.410Z,26.62
2022-07-26T12:40:08.125Z,26.92
2022-07-26T12:42:33.052Z,26.80
2022-07-26T12:44:37.560Z,26.79
2022-07-26T12:46:41.838Z,27.01
2022-07-26T12:48:46.884Z,26.78
2022-07-26T12:50:50.001Z,26.80
2022-07-26T12:52:53.910Z,26.75
2022-07-26T12:54:56.767Z,26.64
2022-07-26T12:56:59.595Z,26.59
2022-07-26T12:59:02.605Z,26.53
2022-07-26T13:01:05.651Z,26.37
2022-07-26T13:03:09.919Z,26.25
2022-07-26T13:05:13.545Z,26.23
2022-07-26T13:07:17.828Z,26.23
2022-07-26T13:09:20.546Z,26.20
2022-07-26T13:11:23.557Z,26.29
2022-07-26T13:13:26.423Z,26.67
2022-07-26T13:15:36.283Z,26.89
2022-07-26T13:17:40.422Z,27.05
2022-07-26T13:19:44.702Z,27.18
2022-07-26T13:21:52.579Z,27.12
2022-07-26T13:23:56.311Z,27.21
2022-07-26T13:25:59.193Z,27.27
2022-07-26T13:28:02.569Z,27.21
2022-07-26T13:30:06.267Z,27.30
2022-07-26T13:32:09.198Z,27.35
2022-07-26T13:34:12.600Z,27.27
2022-07-26T13:36:17.056Z,27.29
2022-07-26T13:38:20.175Z,27.20
2022-07-26T13:40:25.334Z,27.30
2022-07-26T13:42:31.963Z,27.26
2022-07-26T13:44:35.096Z,27.10
2022-07-26T13:46:38.396Z,27.43
2022-07-26T13:48:58.014Z,27.39
2022-07-26T13:51:03.396Z,27.51
2022-07-26T13:53:07.709Z,27.30
2022-07-26T13:55:10.731Z,27.24
2022-07-26T13:57:13.579Z,27.29
2022-07-26T13:59:16.903Z,27.20
2022-07-26T14:01:19.851Z,27.42
2022-07-26T14:03:42.662Z,27.39
2022-07-26T14:05:45.614Z,27.42
2022-07-26T14:07:48.512Z,27.32
2022-07-26T14:09:52.751Z,27.23
2022-07-26T14:11:55.485Z,27.27
2022-07-26T14:13:58.717Z,27.33
2022-07-26T14:16:01.589Z,27.31
2022-07-26T14:18:05.025Z,27.38
2022-07-26T14:20:09.231Z,27.54
2022-07-26T14:22:11.946Z,27.60
2022-07-26T14:24:14.916Z,27.58
2022-07-26T14:26:23.643Z,27.51
2022-07-26T14:28:26.988Z,27.86
2022-07-26T14:30:29.904Z,27.62
2022-07-26T14:32:33.953Z,27.42
2022-07-26T14:34:37.745Z,27.44
2022-07-26T14:36:40.623Z,27.43
2022-07-26T14:38:44.785Z,27.41
2022-07-26T14:40:48.138Z,27.52
2022-07-26T14:42:52.481Z,27.47
2022-07-26T14:44:55.380Z,27.35
2022-07-26T14:46:58.263Z,27.51
2022-07-26T14:49:01.151Z,27.59
2022-07-26T14:51:09.501Z,27.82
2022-07-26T14:53:13.775Z,28.00
2022-07-26T14:55:23.128Z,28.16
2022-07-26T14:57:28.028Z,28.33
2022-07-26T14:59:32.276Z,28.46
2022-07-26T15:01:35.116Z,28.71
2022-07-26T15:03:38.126Z,28.55
2022-07-26T15:05:41.055Z,28.70
2022-07-26T15:07:46.377Z,28.76
2022-07-26T15:09:49.270Z,28.79
2022-07-26T15:11:52.192Z,28.89
2022-07-26T15:14:03.908Z,28.97
2022-07-26T15:16:10.167Z,29.03
2022-07-26T15:18:13.108Z,29.11
2022-07-26T15:20:16.106Z,29.16
2022-07-26T15:22:19.081Z,29.21
2022-07-26T15:24:23.122Z,29.29
2022-07-26T15:26:27.379Z,29.33
2022-07-26T15:28:30.241Z,29.70
2022-07-26T15:30:33.325Z,29.43
2022-07-26T15:32:37.820Z,29.43
2022-07-26T15:34:40.912Z,29.49
2022-07-26T15:36:43.966Z,29.51
2022-07-26T15:38:47.985Z,29.57
2022-07-26T15:40:50.816Z,29.59
2022-07-26T15:42:54.021Z,29.85
2022-07-26T15:44:58.698Z,29.83
2022-07-26T15:47:01.548Z,29.81
2022-07-26T15:49:07.758Z,29.75
2022-07-26T15:51:10.702Z,29.82
2022-07-26T15:53:16.611Z,29.81
2022-07-26T15:55:20.210Z,29.68
2022-07-26T15:57:23.061Z,29.41
2022-07-26T15:59:25.939Z,29.27
2022-07-26T16:01:29.183Z,29.19
2022-07-26T16:03:32.174Z,29.02
2022-07-26T16:05:36.393Z,28.85
2022-07-26T16:07:41.292Z,28.77
2022-07-26T16:09:44.892Z,28.69
2022-07-26T16:11:48.180Z,28.66
2022-07-26T16:13:51.058Z,28.75
2022-07-26T16:16:04.540Z,28.83
2022-07-26T16:18:07.603Z,28.87
2022-07-26T16:20:11.147Z,28.97
2022-07-26T16:22:15.629Z,29.12
2022-07-26T16:24:18.582Z,29.22
2022-07-26T16:26:21.943Z,29.24
2022-07-26T16:28:24.816Z,28.98
2022-07-26T16:30:27.941Z,28.78
2022-07-26T16:32:30.815Z,28.59
2022-07-26T16:34:34.751Z,28.68
2022-07-26T16:36:37.720Z,28.76
2022-07-26T16:38:42.179Z,28.77
2022-07-26T16:40:45.157Z,28.64
2022-07-26T16:42:48.028Z,28.62
2022-07-26T16:44:50.962Z,28.46
2022-07-26T16:46:54.049Z,28.38
2022-07-26T16:48:57.023Z,28.34
2022-07-26T16:50:59.914Z,28.17
2022-07-26T16:53:03.036Z,28.13
2022-07-26T16:55:10.749Z,28.02
2022-07-26T16:57:13.611Z,27.90
2022-07-26T16:59:17.257Z,27.94
2022-07-26T17:01:20.642Z,27.90
2022-07-26T17:03:23.751Z,27.93
2022-07-26T17:05:26.605Z,27.97
2022-07-26T17:07:29.585Z,27.87
2022-07-26T17:09:32.465Z,27.76
2022-07-26T17:11:36.874Z,27.69
2022-07-26T17:13:39.860Z,27.61
2022-07-26T17:15:42.708Z,27.61
2022-07-26T17:17:48.689Z,27.59
2022-07-26T17:19:52.326Z,27.57
2022-07-26T17:21:55.229Z,27.58
2022-07-26T17:24:00.603Z,27.49
2022-07-26T17:26:06.726Z,27.42
2022-07-26T17:28:10.998Z,27.44
2022-07-26T17:30:14.385Z,27.45
2022-07-26T17:32:17.263Z,27.45
2022-07-26T17:34:20.191Z,27.34
2022-07-26T17:36:24.832Z,27.24
2022-07-26T17:38:27.757Z,27.16
2022-07-26T17:40:33.609Z,27.09
2022-07-26T17:42:36.610Z,27.08
2022-07-26T17:44:41.065Z,27.15
2022-07-26T17:46:44.122Z,27.17
2022-07-26T17:48:47.138Z,27.10
2022-07-26T17:50:50.055Z,27.08
2022-07-26T17:52:53.311Z,27.04
2022-07-26T17:54:58.777Z,27.01
2022-07-26T17:57:01.668Z,26.99
2022-07-26T17:59:04.586Z,26.96
2022-07-26T18:01:09.165Z,26.94
2022-07-26T18:03:11.993Z,26.88
2022-07-26T18:05:15.675Z,26.84
2022-07-26T18:07:19.504Z,26.85
2022-07-26T18:09:22.468Z,26.86
2022-07-26T18:11:25.595Z,26.74
2022-07-26T18:13:28.562Z,26.73
2022-07-26T18:15:31.488Z,26.70
2022-07-26T18:17:35.852Z,26.69
2022-07-26T18:19:38.727Z,26.69
2022-07-26T18:21:41.800Z,26.75
2022-07-26T18:24:06.655Z,26.73
2022-07-26T18:26:07.700Z,26.67
2022-07-26T18:28:10.762Z,26.64
2022-07-26T18:30:13.884Z,26.63
2022-07-26T18:32:16.916Z,26.62
2022-07-26T18:34:21.223Z,26.74
2022-07-26T18:36:24.237Z,26.77
2022-07-26T18:38:27.246Z,26.85
2022-07-26T18:40:30.360Z,26.76
2022-07-26T18:42:33.281Z,26.76
2022-07-26T18:44:37.130Z,26.68
2022-07-26T18:46:40.089Z,26.69
2022-07-26T18:48:43.205Z,26.77
2022-07-26T18:50:52.230Z,26.76
2022-07-26T18:52:56.024Z,26.72
2022-07-26T18:54:59.563Z,26.66
2022-07-26T18:57:02.631Z,26.62
2022-07-26T18:59:05.606Z,26.72
2022-07-26T19:01:08.579Z,26.65
2022-07-26T19:03:11.497Z,26.69
2022-07-26T19:05:15.089Z,26.80
2022-07-26T19:07:19.548Z,26.75
2022-07-26T19:09:22.347Z,26.52
2022-07-26T19:11:26.976Z,26.75
2022-07-26T19:13:29.970Z,26.63
2022-07-26T19:15:33.000Z,26.57
2022-07-26T19:17:37.046Z,26.55
2022-07-26T19:19:40.014Z,26.43
2022-07-26T19:21:46.362Z,26.41
2022-07-26T19:23:50.736Z,26.42
2022-07-26T19:25:53.749Z,26.37
2022-07-26T19:27:56.600Z,26.43
2022-07-26T19:29:59.491Z,26.35
2022-07-26T19:32:02.459Z,26.37
2022-07-26T19:34:05.386Z,26.25
2022-07-26T19:36:08.720Z,26.30
2022-07-26T19:38:11.828Z,26.37
2022-07-26T19:40:16.228Z,26.28
2022-07-26T19:42:19.928Z,26.38
2022-07-26T19:44:22.874Z,26.42
2022-07-26T19:46:25.858Z,26.35
2022-07-26T19:48:29.153Z,26.21
2022-07-26T19:50:32.373Z,25.96
2022-07-26T19:52:35.358Z,25.91
2022-07-26T19:54:38.275Z,25.81
2022-07-26T19:56:42.814Z,25.66
2022-07-26T19:58:46.706Z,25.57
2022-07-26T20:00:50.120Z,25.47
2022-07-26T20:02:53.103Z,25.50
2022-07-26T20:04:56.093Z,25.42
2022-07-26T20:06:58.961Z,25.35
2022-07-26T20:09:02.005Z,25.31
2022-07-26T20:11:04.901Z,25.26
2022-07-26T20:13:09.298Z,25.33
2022-07-26T20:15:12.893Z,25.22
2022-07-26T20:17:15.864Z,25.12
2022-07-26T20:19:18.907Z,25.11
2022-07-26T20:21:22.155Z,25.05
2022-07-26T20:23:25.961Z,25.02
2022-07-26T20:25:28.838Z,24.94
2022-07-26T20:27:31.700Z,25.06
2022-07-26T20:29:36.768Z,24.89
2022-07-26T20:31:39.680Z,24.92
2022-07-26T20:33:42.555Z,24.87
2022-07-26T20:35:50.259Z,24.88
2022-07-26T20:37:56.148Z,24.93
2022-07-26T20:39:59.112Z,24.93
2022-07-26T20:42:03.046Z,24.94
2022-07-26T20:44:06.862Z,24.94
2022-07-26T20:46:11.267Z,24.86
2022-07-26T20:48:14.146Z,24.84
2022-07-26T20:50:17.597Z,24.88
2022-07-26T20:52:20.532Z,24.72
2022-07-26T20:54:23.455Z,24.78
2022-07-26T20:56:26.592Z,24.71
2022-07-26T20:58:29.690Z,24.62
2022-07-26T21:00:32.695Z,24.62
2022-07-26T21:02:37.212Z,24.65
2022-07-26T21:04:40.174Z,24.59
2022-07-26T21:06:43.327Z,24.55
2022-07-26T21:08:46.269Z,24.57
2022-07-26T21:10:49.413Z,24.59
2022-07-26T21:12:52.919Z,24.57
2022-07-26T21:14:55.993Z,24.49
2022-07-26T21:16:58.962Z,24.48
2022-07-26T21:19:03.624Z,24.41
2022-07-26T21:21:06.842Z,24.39
2022-07-26T21:23:17.467Z,24.38
2022-07-26T21:25:21.437Z,24.38
2022-07-26T21:27:24.331Z,24.48
2022-07-26T21:29:27.158Z,24.37
2022-07-26T21:31:30.020Z,24.42
2022-07-26T21:33:33.033Z,24.30
2022-07-26T21:35:37.332Z,24.28
2022-07-26T21:37:42.658Z,24.33
2022-07-26T21:39:48.909Z,24.18
2022-07-26T21:41:51.780Z,24.23
2022-07-26T21:43:54.673Z,24.21
2022-07-26T21:45:57.633Z,24.04
2022-07-26T21:48:00.533Z,24.11
2022-07-26T21:50:03.652Z,24.09
2022-07-26T21:52:08.248Z,24.11
2022-07-26T21:54:11.404Z,24.10
2022-07-26T21:56:14.315Z,24.16
2022-07-26T21:58:17.190Z,24.05
2022-07-26T22:00:20.126Z,23.94
2022-07-26T22:02:23.117Z,23.98
2022-07-26T22:04:26.014Z,23.94
2022-07-26T22:06:28.906Z,23.94
2022-07-26T22:08:33.357Z,23.87
2022-07-26T22:10:44.316Z,23.87
2022-07-26T22:12:48.038Z,23.83
2022-07-26T22:14:50.868Z,23.72
2022-07-26T22:16:53.887Z,23.64
2022-07-26T22:18:56.805Z,23.60
2022-07-26T22:21:00.957Z,23.59
2022-07-26T22:23:05.994Z,23.74
2022-07-26T22:25:10.564Z,23.67
2022-07-26T22:27:13.387Z,23.58
2022-07-26T22:29:16.818Z,23.61
2022-07-26T22:31:19.765Z,23.51
2022-07-26T22:33:23.374Z,23.52
2022-07-26T22:35:27.643Z,23.42
2022-07-26T22:37:37.931Z,23.43
2022-07-26T22:39:40.827Z,23.48
2022-07-26T22:42:12.874Z,23.39
2022-07-26T22:44:07.959Z,23.33
2022-07-26T22:46:11.006Z,23.24
2022-07-26T22:48:13.904Z,23.15
2022-07-26T22:50:16.860Z,23.19
2022-07-26T22:52:20.502Z,23.19
2022-07-26T22:54:23.444Z,23.10
2022-07-26T22:56:26.395Z,23.13
2022-07-26T22:58:30.613Z,23.05
2022-07-26T23:00:33.740Z,23.03
2022-07-26T23:02:37.198Z,22.92
2022-07-26T23:04:40.245Z,22.84
2022-07-26T23:06:43.428Z,22.86
2022-07-26T23:08:48.021Z,22.87
2022-07-26T23:10:51.903Z,22.86
2022-07-26T23:12:55.258Z,22.89
2022-07-26T23:14:59.505Z,22.86
2022-07-26T23:17:02.479Z,22.75
2022-07-26T23:19:05.869Z,22.86
2022-07-26T23:21:08.725Z,22.85
2022-07-26T23:23:11.583Z,22.82
2022-07-26T23:25:14.490Z,22.80
2022-07-26T23:27:20.155Z,22.79
2022-07-26T23:29:23.383Z,22.82
2022-07-26T23:31:27.729Z,22.81
2022-07-26T23:33:53.282Z,22.83
2022-07-26T23:35:53.503Z,22.76
2022-07-26T23:37:56.415Z,22.70
2022-07-26T23:39:59.677Z,22.73
2022-07-26T23:42:03.255Z,22.74
2022-07-26T23:44:06.276Z,22.66
2022-07-26T23:46:09.155Z,22.58
2022-07-26T23:48:13.581Z,22.60
2022-07-26T23:50:18.328Z,22.61
2022-07-26T23:52:21.181Z,22.43
2022-07-26T23:54:24.100Z,22.46
2022-07-26T23:56:27.002Z,22.31
2022-07-26T23:58:30.033Z,22.38
